sensor_id;sensor_type;location;lat;lon;timestamp;P1;durP1;ratioP1;P2;durP2;ratioP2
22679;SDS011;11507;44.858;10.374;2023-03-31T16:25:00;1.30;;;0.30;;
22679;SDS011;11507;44.858;10.374;2023-03-31T16:27:36;1.92;;;0.30;;
22679;SDS011;11507;44.858;10.374;2023-03-31T16:30:10;0.68;;;0.20;;
22679;SDS011;11507;44.858;10.374;2023-03-31T16:32:38;0.50;;;0.30;;
22679;SDS011;11507;44.858;10.374;2023-03-31T16:35:31;1.35;;;0.30;;
22679;SDS011;11507;44.858;10.374;2023-03-31T16:37:58;0.50;;;0.13;;
22679;SDS011;11507;44.858;10.374;2023-03-31T16:40:26;1.45;;;0.50;;
22679;SDS011;11507;44.858;10.374;2023-03-31T16:43:13;0.63;;;0.30;;
22679;SDS011;11507;44.858;10.374;2023-03-31T16:45:45;0.80;;;0.30;;
22679;SDS011;11507;44.858;10.374;2023-03-31T16:48:12;0.60;;;0.30;;
22679;SDS011;11507;44.858;10.374;2023-03-31T16:50:42;1.13;;;0.20;;
22679;SDS011;11507;44.858;10.374;2023-03-31T16:53:09;0.70;;;0.30;;
22679;SDS011;11507;44.858;10.374;2023-03-31T16:55:41;1.33;;;0.40;;
22679;SDS011;11507;44.858;10.374;2023-03-31T16:58:09;0.90;;;0.32;;
22679;SDS011;11507;44.858;10.374;2023-03-31T17:00:38;0.52;;;0.30;;
22679;SDS011;11507;44.858;10.374;2023-03-31T17:03:07;0.55;;;0.30;;
22679;SDS011;11507;44.858;10.374;2023-03-31T17:05:39;1.40;;;0.30;;
22679;SDS011;11507;44.858;10.374;2023-03-31T17:08:10;1.35;;;0.40;;
22679;SDS011;11507;44.858;10.374;2023-03-31T17:10:39;0.93;;;0.30;;
22679;SDS011;11507;44.858;10.374;2023-03-31T17:13:06;0.60;;;0.30;;
22679;SDS011;11507;44.858;10.374;2023-03-31T17:15:35;0.93;;;0.40;;
22679;SDS011;11507;44.858;10.374;2023-03-31T17:18:03;2.05;;;0.47;;
22679;SDS011;11507;44.858;10.374;2023-03-31T17:20:29;1.38;;;0.50;;
22679;SDS011;11507;44.858;10.374;2023-03-31T17:23:00;2.88;;;0.63;;
22679;SDS011;11507;44.858;10.374;2023-03-31T17:25:26;1.88;;;0.60;;
22679;SDS011;11507;44.858;10.374;2023-03-31T17:27:53;1.60;;;0.70;;
22679;SDS011;11507;44.858;10.374;2023-03-31T17:30:20;2.00;;;0.80;;
22679;SDS011;11507;44.858;10.374;2023-03-31T17:32:48;4.57;;;1.50;;
22679;SDS011;11507;44.858;10.374;2023-03-31T17:35:14;2.72;;;1.00;;
22679;SDS011;11507;44.858;10.374;2023-03-31T17:37:47;4.38;;;1.80;;
22679;SDS011;11507;44.858;10.374;2023-03-31T17:40:22;4.45;;;1.80;;
22679;SDS011;11507;44.858;10.374;2023-03-31T17:42:50;4.95;;;2.03;;
22679;SDS011;11507;44.858;10.374;2023-03-31T17:45:16;6.30;;;3.05;;
22679;SDS011;11507;44.858;10.374;2023-03-31T17:47:43;10.38;;;4.68;;
22679;SDS011;11507;44.858;10.374;2023-03-31T17:50:10;14.82;;;5.82;;
22679;SDS011;11507;44.858;10.374;2023-03-31T17:52:36;15.38;;;6.88;;
22679;SDS011;11507;44.858;10.374;2023-03-31T17:55:03;14.35;;;8.00;;
22679;SDS011;11507;44.858;10.374;2023-03-31T17:57:30;12.98;;;8.02;;
22679;SDS011;11507;44.858;10.374;2023-03-31T17:59:56;17.52;;;8.95;;
22679;SDS011;11507;44.858;10.374;2023-03-31T18:02:22;15.98;;;8.10;;
22679;SDS011;11507;44.858;10.374;2023-03-31T18:04:48;16.10;;;8.77;;
22679;SDS011;11507;44.858;10.374;2023-03-31T18:07:14;18.17;;;8.90;;
22679;SDS011;11507;44.858;10.374;2023-03-31T18:09:42;17.98;;;9.18;;
22679;SDS011;11507;44.858;10.374;2023-03-31T18:12:09;16.13;;;8.80;;
22679;SDS011;11507;44.858;10.374;2023-03-31T18:14:35;16.17;;;9.30;;
22679;SDS011;11507;44.858;10.374;2023-03-31T18:17:03;17.02;;;8.85;;
22679;SDS011;11507;44.858;10.374;2023-03-31T18:19:29;16.58;;;9.43;;
22679;SDS011;11507;44.858;10.374;2023-03-31T18:21:56;19.08;;;9.15;;
22679;SDS011;11507;44.858;10.374;2023-03-31T18:24:21;17.83;;;8.65;;
22679;SDS011;11507;44.858;10.374;2023-03-31T18:26:48;18.50;;;9.60;;
22679;SDS011;11507;44.858;10.374;2023-03-31T18:31:39;17.30;;;9.00;;
22679;SDS011;11507;44.858;10.374;2023-03-31T18:34:05;13.68;;;8.95;;
22679;SDS011;11507;44.858;10.374;2023-03-31T18:38:57;17.77;;;9.32;;
22679;SDS011;11507;44.858;10.374;2023-03-31T18:41:23;18.10;;;10.18;;
22679;SDS011;11507;44.858;10.374;2023-03-31T18:43:49;19.10;;;10.75;;
22679;SDS011;11507;44.858;10.374;2023-03-31T18:46:16;20.40;;;10.45;;
22679;SDS011;11507;44.858;10.374;2023-03-31T18:48:43;18.15;;;10.68;;
22679;SDS011;11507;44.858;10.374;2023-03-31T18:51:10;21.70;;;10.70;;
22679;SDS011;11507;44.858;10.374;2023-03-31T18:53:37;20.65;;;11.13;;
22679;SDS011;11507;44.858;10.374;2023-03-31T18:56:03;26.27;;;11.75;;
22679;SDS011;11507;44.858;10.374;2023-03-31T18:58:29;20.92;;;11.38;;
22679;SDS011;11507;44.858;10.374;2023-03-31T19:00:57;21.63;;;10.95;;
22679;SDS011;11507;44.858;10.374;2023-03-31T19:03:25;21.92;;;11.43;;
22679;SDS011;11507;44.858;10.374;2023-03-31T19:06:13;20.35;;;11.60;;
22679;SDS011;11507;44.858;10.374;2023-03-31T19:08:41;22.02;;;11.57;;
22679;SDS011;11507;44.858;10.374;2023-03-31T19:11:11;18.92;;;11.48;;
22679;SDS011;11507;44.858;10.374;2023-03-31T19:13:38;20.92;;;11.80;;
22679;SDS011;11507;44.858;10.374;2023-03-31T19:16:07;23.33;;;12.65;;
22679;SDS011;11507;44.858;10.374;2023-03-31T19:18:34;25.50;;;13.23;;
22679;SDS011;11507;44.858;10.374;2023-03-31T19:21:01;25.00;;;13.00;;
22679;SDS011;11507;44.858;10.374;2023-03-31T19:23:28;19.60;;;12.35;;
22679;SDS011;11507;44.858;10.374;2023-03-31T19:25:56;23.63;;;12.10;;
22679;SDS011;11507;44.858;10.374;2023-03-31T19:28:25;23.85;;;12.60;;
22679;SDS011;11507;44.858;10.374;2023-03-31T19:30:52;21.48;;;12.35;;
22679;SDS011;11507;44.858;10.374;2023-03-31T19:33:20;24.70;;;13.10;;
22679;SDS011;11507;44.858;10.374;2023-03-31T19:35:47;22.27;;;12.02;;
22679;SDS011;11507;44.858;10.374;2023-03-31T19:38:13;23.95;;;13.32;;
22679;SDS011;11507;44.858;10.374;2023-03-31T19:40:39;22.23;;;12.90;;
22679;SDS011;11507;44.858;10.374;2023-03-31T19:43:17;20.58;;;12.90;;
22679;SDS011;11507;44.858;10.374;2023-03-31T19:45:48;24.77;;;13.70;;
22679;SDS011;11507;44.858;10.374;2023-03-31T19:48:17;25.45;;;13.93;;
22679;SDS011;11507;44.858;10.374;2023-03-31T19:50:50;24.38;;;14.52;;
22679;SDS011;11507;44.858;10.374;2023-03-31T19:53:18;25.10;;;14.07;;
22679;SDS011;11507;44.858;10.374;2023-03-31T19:56:06;29.38;;;14.18;;
22679;SDS011;11507;44.858;10.374;2023-03-31T19:58:32;27.65;;;14.20;;
22679;SDS011;11507;44.858;10.374;2023-03-31T20:01:00;26.10;;;14.65;;
22679;SDS011;11507;44.858;10.374;2023-03-31T20:03:29;25.02;;;13.75;;
22679;SDS011;11507;44.858;10.374;2023-03-31T20:06:06;29.20;;;14.15;;
22679;SDS011;11507;44.858;10.374;2023-03-31T20:08:35;23.90;;;14.00;;
22679;SDS011;11507;44.858;10.374;2023-03-31T20:11:08;27.52;;;14.93;;
22679;SDS011;11507;44.858;10.374;2023-03-31T20:13:42;30.08;;;15.32;;
22679;SDS011;11507;44.858;10.374;2023-03-31T20:16:09;28.67;;;17.40;;
22679;SDS011;11507;44.858;10.374;2023-03-31T20:18:38;27.52;;;15.10;;
22679;SDS011;11507;44.858;10.374;2023-03-31T20:21:06;22.75;;;14.30;;
22679;SDS011;11507;44.858;10.374;2023-03-31T20:23:37;23.95;;;14.63;;
22679;SDS011;11507;44.858;10.374;2023-03-31T20:26:04;28.02;;;15.35;;
22679;SDS011;11507;44.858;10.374;2023-03-31T20:28:36;25.90;;;16.80;;
22679;SDS011;11507;44.858;10.374;2023-03-31T20:31:10;27.08;;;15.98;;
22679;SDS011;11507;44.858;10.374;2023-03-31T20:33:43;25.58;;;14.48;;
22679;SDS011;11507;44.858;10.374;2023-03-31T20:36:13;25.17;;;14.48;;
22679;SDS011;11507;44.858;10.374;2023-03-31T20:38:42;28.42;;;14.98;;
22679;SDS011;11507;44.858;10.374;2023-03-31T20:41:15;25.70;;;16.25;;
22679;SDS011;11507;44.858;10.374;2023-03-31T20:43:44;27.38;;;15.52;;
22679;SDS011;11507;44.858;10.374;2023-03-31T20:46:12;27.30;;;15.43;;
22679;SDS011;11507;44.858;10.374;2023-03-31T20:48:41;22.15;;;15.27;;
22679;SDS011;11507;44.858;10.374;2023-03-31T20:51:13;30.45;;;16.02;;
22679;SDS011;11507;44.858;10.374;2023-03-31T20:53:46;26.33;;;15.32;;
22679;SDS011;11507;44.858;10.374;2023-03-31T20:56:15;32.55;;;15.95;;
22679;SDS011;11507;44.858;10.374;2023-03-31T20:58:44;27.60;;;15.40;;
22679;SDS011;11507;44.858;10.374;2023-03-31T21:01:12;28.77;;;15.88;;
22679;SDS011;11507;44.858;10.374;2023-03-31T21:03:39;29.73;;;17.42;;
22679;SDS011;11507;44.858;10.374;2023-03-31T21:06:07;34.88;;;18.50;;
22679;SDS011;11507;44.858;10.374;2023-03-31T21:08:35;36.50;;;17.95;;
22679;SDS011;11507;44.858;10.374;2023-03-31T21:11:04;32.25;;;18.08;;
22679;SDS011;11507;44.858;10.374;2023-03-31T21:13:30;31.60;;;17.35;;
22679;SDS011;11507;44.858;10.374;2023-03-31T21:15:57;30.83;;;17.63;;
22679;SDS011;11507;44.858;10.374;2023-03-31T21:18:28;29.98;;;16.98;;
22679;SDS011;11507;44.858;10.374;2023-03-31T21:21:00;29.48;;;17.20;;
22679;SDS011;11507;44.858;10.374;2023-03-31T21:23:31;29.40;;;18.45;;
22679;SDS011;11507;44.858;10.374;2023-03-31T21:25:59;30.42;;;17.15;;
22679;SDS011;11507;44.858;10.374;2023-03-31T21:28:28;33.90;;;18.17;;
22679;SDS011;11507;44.858;10.374;2023-03-31T21:33:26;25.73;;;17.13;;
22679;SDS011;11507;44.858;10.374;2023-03-31T21:35:53;27.08;;;16.02;;
22679;SDS011;11507;44.858;10.374;2023-03-31T21:38:20;29.63;;;16.73;;
22679;SDS011;11507;44.858;10.374;2023-03-31T21:40:47;25.45;;;15.90;;
22679;SDS011;11507;44.858;10.374;2023-03-31T21:43:16;28.92;;;17.23;;
22679;SDS011;11507;44.858;10.374;2023-03-31T21:45:43;25.60;;;16.73;;
22679;SDS011;11507;44.858;10.374;2023-03-31T21:50:36;32.45;;;16.98;;
22679;SDS011;11507;44.858;10.374;2023-03-31T21:53:04;29.42;;;15.75;;
22679;SDS011;11507;44.858;10.374;2023-03-31T21:55:32;27.33;;;16.50;;
22679;SDS011;11507;44.858;10.374;2023-03-31T21:58:00;25.50;;;15.25;;
22679;SDS011;11507;44.858;10.374;2023-03-31T22:00:26;28.95;;;16.40;;
22679;SDS011;11507;44.858;10.374;2023-03-31T22:05:19;25.88;;;15.23;;
22679;SDS011;11507;44.858;10.374;2023-03-31T22:07:46;23.65;;;14.88;;
22679;SDS011;11507;44.858;10.374;2023-03-31T22:10:12;24.80;;;15.48;;
22679;SDS011;11507;44.858;10.374;2023-03-31T22:15:04;28.98;;;17.50;;
22679;SDS011;11507;44.858;10.374;2023-03-31T22:17:32;30.63;;;17.60;;
22679;SDS011;11507;44.858;10.374;2023-03-31T22:19:58;32.50;;;17.38;;
22679;SDS011;11507;44.858;10.374;2023-03-31T22:22:24;31.05;;;18.00;;
22679;SDS011;11507;44.858;10.374;2023-03-31T22:27:16;32.67;;;17.80;;
22679;SDS011;11507;44.858;10.374;2023-03-31T22:29:42;35.47;;;17.77;;
22679;SDS011;11507;44.858;10.374;2023-03-31T22:34:34;28.55;;;17.75;;
22679;SDS011;11507;44.858;10.374;2023-03-31T22:37:00;33.28;;;17.85;;
22679;SDS011;11507;44.858;10.374;2023-03-31T22:41:51;34.60;;;18.50;;
22679;SDS011;11507;44.858;10.374;2023-03-31T22:46:43;31.95;;;18.48;;
22679;SDS011;11507;44.858;10.374;2023-03-31T22:49:12;32.80;;;20.10;;
22679;SDS011;11507;44.858;10.374;2023-03-31T22:51:39;36.17;;;22.33;;
22679;SDS011;11507;44.858;10.374;2023-03-31T22:54:06;39.90;;;21.98;;
22679;SDS011;11507;44.858;10.374;2023-03-31T22:56:35;34.92;;;21.92;;
22679;SDS011;11507;44.858;10.374;2023-03-31T23:01:26;34.85;;;20.52;;
22679;SDS011;11507;44.858;10.374;2023-03-31T23:06:19;38.10;;;20.35;;
22679;SDS011;11507;44.858;10.374;2023-03-31T23:08:46;39.05;;;19.88;;
22679;SDS011;11507;44.858;10.374;2023-03-31T23:11:15;39.20;;;21.08;;
22679;SDS011;11507;44.858;10.374;2023-03-31T23:13:42;40.63;;;21.95;;
22679;SDS011;11507;44.858;10.374;2023-03-31T23:16:10;38.17;;;21.75;;
22679;SDS011;11507;44.858;10.374;2023-03-31T23:18:40;37.90;;;21.25;;
22679;SDS011;11507;44.858;10.374;2023-03-31T23:21:10;37.47;;;23.42;;
22679;SDS011;11507;44.858;10.374;2023-03-31T23:23:37;41.13;;;23.52;;
22679;SDS011;11507;44.858;10.374;2023-03-31T23:28:30;39.00;;;22.17;;
22679;SDS011;11507;44.858;10.374;2023-03-31T23:30:58;40.00;;;22.98;;
22679;SDS011;11507;44.858;10.374;2023-03-31T23:35:51;41.40;;;22.53;;
22679;SDS011;11507;44.858;10.374;2023-03-31T23:38:17;38.53;;;22.80;;
22679;SDS011;11507;44.858;10.374;2023-03-31T23:40:44;38.97;;;24.08;;
22679;SDS011;11507;44.858;10.374;2023-03-31T23:43:12;38.22;;;21.98;;
22679;SDS011;11507;44.858;10.374;2023-03-31T23:45:38;36.28;;;21.42;;
22679;SDS011;11507;44.858;10.374;2023-03-31T23:48:04;39.60;;;21.83;;
22679;SDS011;11507;44.858;10.374;2023-03-31T23:53:00;43.83;;;22.50;;
22679;SDS011;11507;44.858;10.374;2023-03-31T23:55:26;37.22;;;22.63;;
22679;SDS011;11507;44.858;10.374;2023-03-31T23:57:52;39.72;;;23.52;;
